sensor_id;sensor_type;location;lat;lon;timestamp;pressure;altitude;pressure_sealevel;temperature
64296;BMP280;51082;38.236;15.432;2023-06-14T00:00:53;100671.00;;;23.40
64296;BMP280;51082;38.236;15.432;2023-06-14T00:01:59;100678.16;;;23.39
64296;BMP280;51082;38.236;15.432;2023-06-14T00:03:02;100679.78;;;23.40
64296;BMP280;51082;38.236;15.432;2023-06-14T00:04:09;100676.63;;;23.38
64296;BMP280;51082;38.236;15.432;2023-06-14T00:05:15;100673.44;;;23.36
64296;BMP280;51082;38.236;15.432;2023-06-14T00:06:19;100675.81;;;23.38
64296;BMP280;51082;38.236;15.432;2023-06-14T00:07:37;100675.03;;;23.37
64296;BMP280;51082;38.236;15.432;2023-06-14T00:08:41;100670.25;;;23.34
64296;BMP280;51082;38.236;15.432;2023-06-14T00:09:44;100675.59;;;23.34
64296;BMP280;51082;38.236;15.432;2023-06-14T00:10:46;100677.72;;;23.32
64296;BMP280;51082;38.236;15.432;2023-06-14T00:11:52;100676.16;;;23.31
64296;BMP280;51082;38.236;15.432;2023-06-14T00:12:53;100673.19;;;23.33
64296;BMP280;51082;38.236;15.432;2023-06-14T00:13:56;100666.56;;;23.30
64296;BMP280;51082;38.236;15.432;2023-06-14T00:14:58;100667.66;;;23.29
64296;BMP280;51082;38.236;15.432;2023-06-14T00:16:05;100663.72;;;23.27
64296;BMP280;51082;38.236;15.432;2023-06-14T00:17:11;100658.59;;;23.30
64296;BMP280;51082;38.236;15.432;2023-06-14T00:18:14;100653.88;;;23.27
64296;BMP280;51082;38.236;15.432;2023-06-14T00:19:19;100650.13;;;23.28
64296;BMP280;51082;38.236;15.432;2023-06-14T00:20:24;100658.09;;;23.28
64296;BMP280;51082;38.236;15.432;2023-06-14T00:21:27;100657.59;;;23.26
64296;BMP280;51082;38.236;15.432;2023-06-14T00:22:29;100656.22;;;23.29
64296;BMP280;51082;38.236;15.432;2023-06-14T00:23:33;100660.75;;;23.28
64296;BMP280;51082;38.236;15.432;2023-06-14T00:24:37;100650.69;;;23.25
64296;BMP280;51082;38.236;15.432;2023-06-14T00:25:39;100655.44;;;23.28
64296;BMP280;51082;38.236;15.432;2023-06-14T00:26:42;100656.22;;;23.29
64296;BMP280;51082;38.236;15.432;2023-06-14T00:27:44;100654.13;;;23.31
64296;BMP280;51082;38.236;15.432;2023-06-14T00:28:56;100649.06;;;23.29
64296;BMP280;51082;38.236;15.432;2023-06-14T00:30:02;100651.72;;;23.29
64296;BMP280;51082;38.236;15.432;2023-06-14T00:31:09;100646.41;;;23.29
64296;BMP280;51082;38.236;15.432;2023-06-14T00:32:13;100648.56;;;23.27
64296;BMP280;51082;38.236;15.432;2023-06-14T00:33:19;100645.38;;;23.25
64296;BMP280;51082;38.236;15.432;2023-06-14T00:34:27;100645.94;;;23.22
64296;BMP280;51082;38.236;15.432;2023-06-14T00:35:32;100640.41;;;23.19
64296;BMP280;51082;38.236;15.432;2023-06-14T00:36:34;100648.63;;;23.17
64296;BMP280;51082;38.236;15.432;2023-06-14T00:37:46;100640.41;;;23.19
64296;BMP280;51082;38.236;15.432;2023-06-14T00:38:51;100632.69;;;23.17
64296;BMP280;51082;38.236;15.432;2023-06-14T00:39:59;100640.16;;;23.15
64296;BMP280;51082;38.236;15.432;2023-06-14T00:41:10;100632.19;;;23.15
64296;BMP280;51082;38.236;15.432;2023-06-14T00:42:23;100633.50;;;23.18
64296;BMP280;51082;38.236;15.432;2023-06-14T00:43:28;100635.09;;;23.19
64296;BMP280;51082;38.236;15.432;2023-06-14T00:44:31;100636.72;;;23.15
64296;BMP280;51082;38.236;15.432;2023-06-14T00:45:34;100624.78;;;23.12
64296;BMP280;51082;38.236;15.432;2023-06-14T00:46:37;100631.16;;;23.11
64296;BMP280;51082;38.236;15.432;2023-06-14T00:47:44;100621.06;;;23.13
64296;BMP280;51082;38.236;15.432;2023-06-14T00:48:51;100626.38;;;23.13
64296;BMP280;51082;38.236;15.432;2023-06-14T00:49:54;100612.56;;;23.11
64296;BMP280;51082;38.236;15.432;2023-06-14T00:51:11;100618.94;;;23.10
64296;BMP280;51082;38.236;15.432;2023-06-14T00:52:16;100610.47;;;23.08
64296;BMP280;51082;38.236;15.432;2023-06-14T00:53:24;100614.19;;;23.07
64296;BMP280;51082;38.236;15.432;2023-06-14T00:54:29;100608.91;;;23.02
64296;BMP280;51082;38.236;15.432;2023-06-14T00:55:32;100609.22;;;23.00
64296;BMP280;51082;38.236;15.432;2023-06-14T00:56:38;100606.56;;;23.00
64296;BMP280;51082;38.236;15.432;2023-06-14T00:57:42;100602.06;;;23.01
64296;BMP280;51082;38.236;15.432;2023-06-14T00:58:44;100612.13;;;23.04
64296;BMP280;51082;38.236;15.432;2023-06-14T00:59:48;100609.72;;;23.02
64296;BMP280;51082;38.236;15.432;2023-06-14T01:00:50;100604.41;;;23.02
64296;BMP280;51082;38.236;15.432;2023-06-14T01:01:53;100607.84;;;23.03
64296;BMP280;51082;38.236;15.432;2023-06-14T01:02:57;100610.50;;;23.03
64296;BMP280;51082;38.236;15.432;2023-06-14T01:04:02;100602.06;;;23.01
64296;BMP280;51082;38.236;15.432;2023-06-14T01:05:05;100608.16;;;23.01
64296;BMP280;51082;38.236;15.432;2023-06-14T01:06:28;100597.28;;;22.98
64296;BMP280;51082;38.236;15.432;2023-06-14T01:07:56;100608.47;;;22.95
64296;BMP280;51082;38.236;15.432;2023-06-14T01:09:09;100604.22;;;22.94
64296;BMP280;51082;38.236;15.432;2023-06-14T01:10:26;100604.75;;;22.96
64296;BMP280;51082;38.236;15.432;2023-06-14T01:11:40;100597.28;;;22.98
64296;BMP280;51082;38.236;15.432;2023-06-14T01:12:49;100605.00;;;22.99
64296;BMP280;51082;38.236;15.432;2023-06-14T01:13:53;100604.16;;;22.99
64296;BMP280;51082;38.236;15.432;2023-06-14T01:14:57;100606.56;;;23.00
64296;BMP280;51082;38.236;15.432;2023-06-14T01:16:02;100602.06;;;23.01
64296;BMP280;51082;38.236;15.432;2023-06-14T01:17:04;100607.38;;;23.01
64296;BMP280;51082;38.236;15.432;2023-06-14T01:18:18;100606.81;;;23.04
64296;BMP280;51082;38.236;15.432;2023-06-14T01:19:20;100603.63;;;23.02
64296;BMP280;51082;38.236;15.432;2023-06-14T01:20:28;100610.03;;;23.01
64296;BMP280;51082;38.236;15.432;2023-06-14T01:21:30;100602.59;;;22.98
64296;BMP280;51082;38.236;15.432;2023-06-14T01:22:50;100605.22;;;22.98
64296;BMP280;51082;38.236;15.432;2023-06-14T01:23:53;100601.03;;;22.97
64296;BMP280;51082;38.236;15.432;2023-06-14T01:24:55;100606.34;;;22.97
64296;BMP280;51082;38.236;15.432;2023-06-14T01:26:00;100610.28;;;22.99
64296;BMP280;51082;38.236;15.432;2023-06-14T01:27:05;100605.22;;;22.98
64296;BMP280;51082;38.236;15.432;2023-06-14T01:28:08;100607.88;;;22.98
64296;BMP280;51082;38.236;15.432;2023-06-14T01:29:16;100608.44;;;23.00
64296;BMP280;51082;38.236;15.432;2023-06-14T01:30:20;100618.78;;;23.01
64296;BMP280;51082;38.236;15.432;2023-06-14T01:31:23;100610.50;;;23.03
64296;BMP280;51082;38.236;15.432;2023-06-14T01:32:26;100595.16;;;23.00
64296;BMP280;51082;38.236;15.432;2023-06-14T01:33:31;100609.47;;;22.99
64296;BMP280;51082;38.236;15.432;2023-06-14T01:34:34;100611.66;;;22.97
64296;BMP280;51082;38.236;15.432;2023-06-14T01:35:40;100601.56;;;22.94
64296;BMP280;51082;38.236;15.432;2023-06-14T01:36:44;100605.31;;;22.93
64296;BMP280;51082;38.236;15.432;2023-06-14T01:38:02;100613.28;;;22.93
64296;BMP280;51082;38.236;15.432;2023-06-14T01:39:08;100603.72;;;22.92
64296;BMP280;51082;38.236;15.432;2023-06-14T01:40:12;100605.31;;;22.93
64296;BMP280;51082;38.236;15.432;2023-06-14T01:41:16;100615.63;;;22.94
64296;BMP280;51082;38.236;15.432;2023-06-14T01:42:23;100613.78;;;22.95
64296;BMP280;51082;38.236;15.432;2023-06-14T01:43:26;100622.25;;;22.97
64296;BMP280;51082;38.236;15.432;2023-06-14T01:44:30;100617.22;;;22.95
64296;BMP280;51082;38.236;15.432;2023-06-14T01:45:33;100614.56;;;22.95
64296;BMP280;51082;38.236;15.432;2023-06-14T01:46:40;100617.75;;;22.97
64296;BMP280;51082;38.236;15.432;2023-06-14T01:47:54;100610.53;;;22.98
64296;BMP280;51082;38.236;15.432;2023-06-14T01:49:03;100613.50;;;22.96
64296;BMP280;51082;38.236;15.432;2023-06-14T01:50:06;100614.00;;;22.98
64296;BMP280;51082;38.236;15.432;2023-06-14T01:51:09;100611.66;;;22.97
64296;BMP280;51082;38.236;15.432;2023-06-14T01:52:15;100615.38;;;22.96
64296;BMP280;51082;38.236;15.432;2023-06-14T01:53:34;100606.38;;;22.92
64296;BMP280;51082;38.236;15.432;2023-06-14T01:54:36;100606.91;;;22.89
64296;BMP280;51082;38.236;15.432;2023-06-14T01:55:42;100595.28;;;22.85
64296;BMP280;51082;38.236;15.432;2023-06-14T01:56:47;100596.84;;;22.86
64296;BMP280;51082;38.236;15.432;2023-06-14T01:57:53;100591.03;;;22.84
64296;BMP280;51082;38.236;15.432;2023-06-14T01:58:55;100590.53;;;22.82
64296;BMP280;51082;38.236;15.432;2023-06-14T01:59:58;100588.94;;;22.81
64296;BMP280;51082;38.236;15.432;2023-06-14T02:01:02;100585.22;;;22.82
64296;BMP280;51082;38.236;15.432;2023-06-14T02:02:06;100584.69;;;22.80
64296;BMP280;51082;38.236;15.432;2023-06-14T02:03:08;100582.34;;;22.78
64296;BMP280;51082;38.236;15.432;2023-06-14T02:04:12;100583.13;;;22.79
64296;BMP280;51082;38.236;15.432;2023-06-14T02:05:17;100590.31;;;22.78
64296;BMP280;51082;38.236;15.432;2023-06-14T02:06:20;100580.75;;;22.77
64296;BMP280;51082;38.236;15.432;2023-06-14T02:07:21;100586.56;;;22.79
64296;BMP280;51082;38.236;15.432;2023-06-14T02:08:26;100575.16;;;22.79
64296;BMP280;51082;38.236;15.432;2023-06-14T02:09:33;100576.25;;;22.78
64296;BMP280;51082;38.236;15.432;2023-06-14T02:10:36;100573.00;;;22.81
64296;BMP280;51082;38.236;15.432;2023-06-14T02:11:37;100575.66;;;22.81
64296;BMP280;51082;38.236;15.432;2023-06-14T02:12:40;100568.75;;;22.80
64296;BMP280;51082;38.236;15.432;2023-06-14T02:13:47;100565.84;;;22.81
64296;BMP280;51082;38.236;15.432;2023-06-14T02:14:50;100565.28;;;22.84
64296;BMP280;51082;38.236;15.432;2023-06-14T02:15:52;100561.56;;;22.85
64296;BMP280;51082;38.236;15.432;2023-06-14T02:16:59;100552.00;;;22.84
64296;BMP280;51082;38.236;15.432;2023-06-14T02:18:05;100548.56;;;22.84
64296;BMP280;51082;38.236;15.432;2023-06-14T02:19:08;100548.88;;;22.82
64296;BMP280;51082;38.236;15.432;2023-06-14T02:20:13;100548.56;;;22.84
64296;BMP280;51082;38.236;15.432;2023-06-14T02:21:16;100547.00;;;22.83
64296;BMP280;51082;38.236;15.432;2023-06-14T02:22:20;100542.22;;;22.80
64296;BMP280;51082;38.236;15.432;2023-06-14T02:23:23;100543.84;;;22.75
64296;BMP280;51082;38.236;15.432;2023-06-14T02:24:26;100540.94;;;22.72
64296;BMP280;51082;38.236;15.432;2023-06-14T02:25:29;100539.13;;;22.72
64296;BMP280;51082;38.236;15.432;2023-06-14T02:26:33;100536.91;;;22.80
64296;BMP280;51082;38.236;15.432;2023-06-14T02:27:39;100532.16;;;22.82
64296;BMP280;51082;38.236;15.432;2023-06-14T02:28:41;100544.28;;;22.88
64296;BMP280;51082;38.236;15.432;2023-06-14T02:29:43;100542.69;;;22.87
64296;BMP280;51082;38.236;15.432;2023-06-14T02:30:45;100538.47;;;22.86
64296;BMP280;51082;38.236;15.432;2023-06-14T02:31:48;100538.50;;;22.81
64296;BMP280;51082;38.236;15.432;2023-06-14T02:32:50;100531.59;;;22.80
64296;BMP280;51082;38.236;15.432;2023-06-14T02:33:54;100539.09;;;22.78
64296;BMP280;51082;38.236;15.432;2023-06-14T02:34:58;100532.75;;;22.73
64296;BMP280;51082;38.236;15.432;2023-06-14T02:36:02;100531.44;;;22.71
64296;BMP280;51082;38.236;15.432;2023-06-14T02:37:04;100534.38;;;22.69
64296;BMP280;51082;38.236;15.432;2023-06-14T02:38:07;100535.94;;;22.70
64296;BMP280;51082;38.236;15.432;2023-06-14T02:39:11;100525.25;;;22.75
64296;BMP280;51082;38.236;15.432;2023-06-14T02:40:23;100523.38;;;22.81
64296;BMP280;51082;38.236;15.432;2023-06-14T02:41:26;100521.53;;;22.82
64296;BMP280;51082;38.236;15.432;2023-06-14T02:42:29;100512.75;;;22.81
64296;BMP280;51082;38.236;15.432;2023-06-14T02:43:36;100509.06;;;22.82
64296;BMP280;51082;38.236;15.432;2023-06-14T02:44:39;100500.53;;;22.80
64296;BMP280;51082;38.236;15.432;2023-06-14T02:45:41;100499.22;;;22.83
64296;BMP280;51082;38.236;15.432;2023-06-14T02:46:44;100502.72;;;22.78
64296;BMP280;51082;38.236;15.432;2023-06-14T02:47:45;100505.63;;;22.77
64296;BMP280;51082;38.236;15.432;2023-06-14T02:48:48;100510.44;;;22.74
64296;BMP280;51082;38.236;15.432;2023-06-14T02:49:50;100510.19;;;22.71
64296;BMP280;51082;38.236;15.432;2023-06-14T02:50:53;100521.34;;;22.73
64296;BMP280;51082;38.236;15.432;2023-06-14T02:51:58;100523.75;;;22.69
64296;BMP280;51082;38.236;15.432;2023-06-14T02:53:01;100525.88;;;22.67
64296;BMP280;51082;38.236;15.432;2023-06-14T02:54:03;100521.09;;;22.69
64296;BMP280;51082;38.236;15.432;2023-06-14T02:55:07;100530.34;;;22.72
64296;BMP280;51082;38.236;15.432;2023-06-14T02:56:12;100525.34;;;22.70
64296;BMP280;51082;38.236;15.432;2023-06-14T02:57:15;100525.84;;;22.72
64296;BMP280;51082;38.236;15.432;2023-06-14T02:58:16;100540.94;;;22.72
64296;BMP280;51082;38.236;15.432;2023-06-14T02:59:20;100540.16;;;22.71
64296;BMP280;51082;38.236;15.432;2023-06-14T03:00:22;100552.38;;;22.72
64296;BMP280;51082;38.236;15.432;2023-06-14T03:01:31;100560.34;;;22.72
64296;BMP280;51082;38.236;15.432;2023-06-14T03:02:35;100561.38;;;22.71
64296;BMP280;51082;38.236;15.432;2023-06-14T03:03:39;100563.00;;;22.72
64296;BMP280;51082;38.236;15.432;2023-06-14T03:04:41;100569.09;;;22.73
64296;BMP280;51082;38.236;15.432;2023-06-14T03:05:50;100565.38;;;22.74
64296;BMP280;51082;38.236;15.432;2023-06-14T03:06:52;100567.22;;;22.79
64296;BMP280;51082;38.236;15.432;2023-06-14T03:07:55;100573.28;;;22.79
64296;BMP280;51082;38.236;15.432;2023-06-14T03:09:07;100579.38;;;22.80
64296;BMP280;51082;38.236;15.432;2023-06-14T03:10:10;100584.69;;;22.80
64296;BMP280;51082;38.236;15.432;2023-06-14T03:11:19;100590.53;;;22.77
64296;BMP280;51082;38.236;15.432;2023-06-14T03:12:23;100595.84;;;22.77
64296;BMP280;51082;38.236;15.432;2023-06-14T03:13:26;100593.19;;;22.77
64296;BMP280;51082;38.236;15.432;2023-06-14T03:14:28;100610.19;;;22.75
64296;BMP280;51082;38.236;15.432;2023-06-14T03:15:31;100602.00;;;22.77
64296;BMP280;51082;38.236;15.432;2023-06-14T03:16:37;100613.41;;;22.78
64296;BMP280;51082;38.236;15.432;2023-06-14T03:17:39;100611.78;;;22.77
64296;BMP280;51082;38.236;15.432;2023-06-14T03:18:41;100621.34;;;22.78
64296;BMP280;51082;38.236;15.432;2023-06-14T03:19:45;100614.97;;;22.79
64296;BMP280;51082;38.236;15.432;2023-06-14T03:20:56;100621.84;;;22.80
64296;BMP280;51082;38.236;15.432;2023-06-14T03:21:59;100609.69;;;22.79
64296;BMP280;51082;38.236;15.432;2023-06-14T03:23:03;100619.19;;;22.80
64296;BMP280;51082;38.236;15.432;2023-06-14T03:24:06;100611.22;;;22.80
64296;BMP280;51082;38.236;15.432;2023-06-14T03:25:14;100603.56;;;22.78
64296;BMP280;51082;38.236;15.432;2023-06-14T03:26:17;100604.88;;;22.75
64296;BMP280;51082;38.236;15.432;2023-06-14T03:27:21;100603.34;;;22.74
64296;BMP280;51082;38.236;15.432;2023-06-14T03:28:23;100603.84;;;22.71
64296;BMP280;51082;38.236;15.432;2023-06-14T03:29:26;100597.78;;;22.71
64296;BMP280;51082;38.236;15.432;2023-06-14T03:30:29;100596.97;;;22.70
64296;BMP280;51082;38.236;15.432;2023-06-14T03:31:33;100591.16;;;22.68
64296;BMP280;51082;38.236;15.432;2023-06-14T03:32:36;100586.38;;;22.70
64296;BMP280;51082;38.236;15.432;2023-06-14T03:33:39;100587.16;;;22.71
64296;BMP280;51082;38.236;15.432;2023-06-14T03:34:40;100589.75;;;22.76
64296;BMP280;51082;38.236;15.432;2023-06-14T03:35:43;100596.44;;;22.73
64296;BMP280;51082;38.236;15.432;2023-06-14T03:36:49;100598.53;;;22.71
64296;BMP280;51082;38.236;15.432;2023-06-14T03:37:51;100593.53;;;22.70
64296;BMP280;51082;38.236;15.432;2023-06-14T03:38:53;100595.41;;;22.69
64296;BMP280;51082;38.236;15.432;2023-06-14T03:39:57;100604.94;;;22.70
64296;BMP280;51082;38.236;15.432;2023-06-14T03:40:58;100603.38;;;22.69
64296;BMP280;51082;38.236;15.432;2023-06-14T03:42:03;100615.00;;;22.73
64296;BMP280;51082;38.236;15.432;2023-06-14T03:43:09;100612.38;;;22.73
64296;BMP280;51082;38.236;15.432;2023-06-14T03:44:14;100616.84;;;22.78
64296;BMP280;51082;38.236;15.432;2023-06-14T03:45:16;100618.13;;;22.81
64296;BMP280;51082;38.236;15.432;2023-06-14T03:46:19;100620.78;;;22.81
64296;BMP280;51082;38.236;15.432;2023-06-14T03:47:20;100616.53;;;22.80
64296;BMP280;51082;38.236;15.432;2023-06-14T03:48:23;100620.81;;;22.75
64296;BMP280;51082;38.236;15.432;2023-06-14T03:49:25;100610.19;;;22.75
64296;BMP280;51082;38.236;15.432;2023-06-14T03:50:31;100613.41;;;22.78
64296;BMP280;51082;38.236;15.432;2023-06-14T03:51:33;100605.44;;;22.78
64296;BMP280;51082;38.236;15.432;2023-06-14T03:52:36;100606.22;;;22.78
64296;BMP280;51082;38.236;15.432;2023-06-14T03:53:38;100610.44;;;22.79
64296;BMP280;51082;38.236;15.432;2023-06-14T03:54:41;100604.38;;;22.79
64296;BMP280;51082;38.236;15.432;2023-06-14T03:55:44;100611.22;;;22.80
64296;BMP280;51082;38.236;15.432;2023-06-14T03:56:47;100611.78;;;22.82
64296;BMP280;51082;38.236;15.432;2023-06-14T03:57:50;100617.34;;;22.80
64296;BMP280;51082;38.236;15.432;2023-06-14T03:58:53;100619.19;;;22.80
64296;BMP280;51082;38.236;15.432;2023-06-14T04:00:02;100612.81;;;22.81
64296;BMP280;51082;38.236;15.432;2023-06-14T04:01:07;100615.72;;;22.84
64296;BMP280;51082;38.236;15.432;2023-06-14T04:02:08;100614.44;;;22.82
64296;BMP280;51082;38.236;15.432;2023-06-14T04:03:11;100621.31;;;22.83
64296;BMP280;51082;38.236;15.432;2023-06-14T04:04:14;100631.94;;;22.83
64296;BMP280;51082;38.236;15.432;2023-06-14T04:05:19;100627.94;;;22.80
64296;BMP280;51082;38.236;15.432;2023-06-14T04:06:21;100638.25;;;22.87
64296;BMP280;51082;38.236;15.432;2023-06-14T04:07:25;100635.88;;;22.85
64296;BMP280;51082;38.236;15.432;2023-06-14T04:08:29;100637.19;;;22.88
64296;BMP280;51082;38.236;15.432;2023-06-14T04:09:32;100634.00;;;22.91
64296;BMP280;51082;38.236;15.432;2023-06-14T04:10:34;100640.34;;;22.95
64296;BMP280;51082;38.236;15.432;2023-06-14T04:11:37;100649.88;;;22.96
64296;BMP280;51082;38.236;15.432;2023-06-14T04:12:39;100655.69;;;22.98
64296;BMP280;51082;38.236;15.432;2023-06-14T04:13:44;100662.56;;;22.99
64296;BMP280;51082;38.236;15.432;2023-06-14T04:14:45;100660.47;;;23.01
64296;BMP280;51082;38.236;15.432;2023-06-14T04:15:48;100667.34;;;23.02
64296;BMP280;51082;38.236;15.432;2023-06-14T04:16:50;100662.03;;;23.02
64296;BMP280;51082;38.236;15.432;2023-06-14T04:17:53;100663.63;;;23.03
64296;BMP280;51082;38.236;15.432;2023-06-14T04:18:58;100654.59;;;23.04
64296;BMP280;51082;38.236;15.432;2023-06-14T04:20:01;100659.91;;;23.04
64296;BMP280;51082;38.236;15.432;2023-06-14T04:21:04;100655.09;;;23.06
64296;BMP280;51082;38.236;15.432;2023-06-14T04:22:09;100651.91;;;23.09
64296;BMP280;51082;38.236;15.432;2023-06-14T04:23:12;100648.16;;;23.10
64296;BMP280;51082;38.236;15.432;2023-06-14T04:24:15;100659.31;;;23.12
64296;BMP280;51082;38.236;15.432;2023-06-14T04:25:17;100660.38;;;23.11
64296;BMP280;51082;38.236;15.432;2023-06-14T04:26:21;100664.91;;;23.11
64296;BMP280;51082;38.236;15.432;2023-06-14T04:27:22;100661.75;;;23.08
64296;BMP280;51082;38.236;15.432;2023-06-14T04:28:26;100660.66;;;23.09
64296;BMP280;51082;38.236;15.432;2023-06-14T04:29:29;100660.94;;;23.08
64296;BMP280;51082;38.236;15.432;2023-06-14T04:30:32;100653.47;;;23.10
64296;BMP280;51082;38.236;15.432;2023-06-14T04:31:34;100666.47;;;23.12
64296;BMP280;51082;38.236;15.432;2023-06-14T04:32:38;100662.75;;;23.13
64296;BMP280;51082;38.236;15.432;2023-06-14T04:33:40;100663.53;;;23.13
64296;BMP280;51082;38.236;15.432;2023-06-14T04:34:47;100673.63;;;23.16
64296;BMP280;51082;38.236;15.432;2023-06-14T04:35:49;100671.72;;;23.17
64296;BMP280;51082;38.236;15.432;2023-06-14T04:36:54;100666.41;;;23.17
64296;BMP280;51082;38.236;15.432;2023-06-14T04:37:57;100667.22;;;23.17
64296;BMP280;51082;38.236;15.432;2023-06-14T04:39:00;100663.53;;;23.13
64296;BMP280;51082;38.236;15.432;2023-06-14T04:40:05;100665.13;;;23.14
64296;BMP280;51082;38.236;15.432;2023-06-14T04:41:09;100675.16;;;23.17
64296;BMP280;51082;38.236;15.432;2023-06-14T04:42:12;100666.16;;;23.18
64296;BMP280;51082;38.236;15.432;2023-06-14T04:43:15;100664.34;;;23.14
64296;BMP280;51082;38.236;15.432;2023-06-14T04:44:18;100668.84;;;23.13
64296;BMP280;51082;38.236;15.432;2023-06-14T04:45:23;100664.63;;;23.12
64296;BMP280;51082;38.236;15.432;2023-06-14T04:46:25;100669.06;;;23.17
64296;BMP280;51082;38.236;15.432;2023-06-14T04:47:29;100675.16;;;23.17
64296;BMP280;51082;38.236;15.432;2023-06-14T04:48:33;100681.53;;;23.21
64296;BMP280;51082;38.236;15.432;2023-06-14T04:49:36;100680.97;;;23.24
64296;BMP280;51082;38.236;15.432;2023-06-14T04:50:38;100690.28;;;23.27
64296;BMP280;51082;38.236;15.432;2023-06-14T04:51:42;100688.91;;;23.29
64296;BMP280;51082;38.236;15.432;2023-06-14T04:52:44;100687.56;;;23.32
64296;BMP280;51082;38.236;15.432;2023-06-14T04:53:46;100693.09;;;23.35
64296;BMP280;51082;38.236;15.432;2023-06-14T04:54:50;100694.97;;;23.35
64296;BMP280;51082;38.236;15.432;2023-06-14T04:55:55;100691.53;;;23.34
64296;BMP280;51082;38.236;15.432;2023-06-14T04:56:58;100691.53;;;23.34
64296;BMP280;51082;38.236;15.432;2023-06-14T04:57:59;100702.06;;;23.39
64296;BMP280;51082;38.236;15.432;2023-06-14T04:59:03;100699.97;;;23.41
64296;BMP280;51082;38.236;15.432;2023-06-14T05:00:07;100701.78;;;23.46
64296;BMP280;51082;38.236;15.432;2023-06-14T05:01:14;100703.81;;;23.54
64296;BMP280;51082;38.236;15.432;2023-06-14T05:02:19;100698.00;;;23.52
64296;BMP280;51082;38.236;15.432;2023-06-14T05:03:23;100703.00;;;23.59
64296;BMP280;51082;38.236;15.432;2023-06-14T05:04:25;100714.41;;;23.59
64296;BMP280;51082;38.236;15.432;2023-06-14T05:05:29;100711.72;;;23.64
64296;BMP280;51082;38.236;15.432;2023-06-14T05:06:30;100708.72;;;23.71
64296;BMP280;51082;38.236;15.432;2023-06-14T05:07:34;100714.72;;;23.82
64296;BMP280;51082;38.236;15.432;2023-06-14T05:08:39;100720.75;;;23.87
64296;BMP280;51082;38.236;15.432;2023-06-14T05:09:42;100717.50;;;23.95
64296;BMP280;51082;38.236;15.432;2023-06-14T05:10:45;100716.88;;;24.03
64296;BMP280;51082;38.236;15.432;2023-06-14T05:11:49;100729.16;;;23.99
64296;BMP280;51082;38.236;15.432;2023-06-14T05:12:55;100721.13;;;24.04
64296;BMP280;51082;38.236;15.432;2023-06-14T05:13:59;100721.03;;;24.09
64296;BMP280;51082;38.236;15.432;2023-06-14T05:15:03;100732.09;;;24.22
64296;BMP280;51082;38.236;15.432;2023-06-14T05:16:04;100735.22;;;24.24
64296;BMP280;51082;38.236;15.432;2023-06-14T05:17:14;100740.78;;;24.27
64296;BMP280;51082;38.236;15.432;2023-06-14T05:18:21;100735.78;;;24.26
64296;BMP280;51082;38.236;15.432;2023-06-14T05:19:24;100737.78;;;24.34
64296;BMP280;51082;38.236;15.432;2023-06-14T05:20:25;100740.72;;;24.32
64296;BMP280;51082;38.236;15.432;2023-06-14T05:21:33;100732.47;;;24.34
64296;BMP280;51082;38.236;15.432;2023-06-14T05:22:36;100734.56;;;24.37
64296;BMP280;51082;38.236;15.432;2023-06-14T05:23:37;100734.56;;;24.37
64296;BMP280;51082;38.236;15.432;2023-06-14T05:24:41;100732.59;;;24.42
64296;BMP280;51082;38.236;15.432;2023-06-14T05:25:46;100733.28;;;24.53
64296;BMP280;51082;38.236;15.432;2023-06-14T05:26:50;100740.69;;;24.56
64296;BMP280;51082;38.236;15.432;2023-06-14T05:27:53;100737.22;;;24.56
64296;BMP280;51082;38.236;15.432;2023-06-14T05:28:55;100735.09;;;24.58
64296;BMP280;51082;38.236;15.432;2023-06-14T05:29:58;100741.19;;;24.58
64296;BMP280;51082;38.236;15.432;2023-06-14T05:31:00;100736.88;;;24.62
64296;BMP280;51082;38.236;15.432;2023-06-14T05:32:08;100737.19;;;24.61
64296;BMP280;51082;38.236;15.432;2023-06-14T05:33:11;100730.00;;;24.61
64296;BMP280;51082;38.236;15.432;2023-06-14T05:34:14;100727.81;;;24.63
64296;BMP280;51082;38.236;15.432;2023-06-14T05:35:16;100731.78;;;24.66
64296;BMP280;51082;38.236;15.432;2023-06-14T05:36:19;100731.47;;;24.67
64296;BMP280;51082;38.236;15.432;2023-06-14T05:37:23;100726.44;;;24.66
64296;BMP280;51082;38.236;15.432;2023-06-14T05:38:26;100723.00;;;24.65
64296;BMP280;51082;38.236;15.432;2023-06-14T05:39:28;100730.69;;;24.67
64296;BMP280;51082;38.236;15.432;2023-06-14T05:40:34;100718.16;;;24.67
64296;BMP280;51082;38.236;15.432;2023-06-14T05:41:38;100725.00;;;24.73
64296;BMP280;51082;38.236;15.432;2023-06-14T05:42:44;100720.19;;;24.75
64296;BMP280;51082;38.236;15.432;2023-06-14T05:43:45;100722.28;;;24.78
64296;BMP280;51082;38.236;15.432;2023-06-14T05:44:48;100722.69;;;24.86
64296;BMP280;51082;38.236;15.432;2023-06-14T05:45:50;100721.16;;;24.98
64296;BMP280;51082;38.236;15.432;2023-06-14T05:46:53;100733.28;;;25.23
64296;BMP280;51082;38.236;15.432;2023-06-14T05:47:55;100744.13;;;25.59
64296;BMP280;51082;38.236;15.432;2023-06-14T05:49:00;100750.06;;;25.70
64296;BMP280;51082;38.236;15.432;2023-06-14T05:50:02;100756.47;;;25.96
64296;BMP280;51082;38.236;15.432;2023-06-14T05:51:06;100754.19;;;26.17
64296;BMP280;51082;38.236;15.432;2023-06-14T05:52:13;100761.00;;;26.23
64296;BMP280;51082;38.236;15.432;2023-06-14T05:53:16;100759.91;;;26.38
64296;BMP280;51082;38.236;15.432;2023-06-14T05:54:18;100763.69;;;26.59
64296;BMP280;51082;38.236;15.432;2023-06-14T05:55:26;100772.31;;;26.78
64296;BMP280;51082;38.236;15.432;2023-06-14T05:56:32;100769.81;;;26.95
64296;BMP280;51082;38.236;15.432;2023-06-14T05:57:38;100783.13;;;27.40
64296;BMP280;51082;38.236;15.432;2023-06-14T05:58:46;100790.94;;;27.67
64296;BMP280;51082;38.236;15.432;2023-06-14T05:59:55;100787.44;;;27.58
64296;BMP280;51082;38.236;15.432;2023-06-14T06:00:57;100783.84;;;27.63